sensor_id;sensor_type;location;lat;lon;timestamp;pressure;altitude;pressure_sealevel;temperature;humidity
59789;BME280;47353;51.614;5.530;2022-08-16T00:00:47;100483.94;;;20.52;69.82
59789;BME280;47353;51.614;5.530;2022-08-16T00:03:13;100480.09;;;20.45;69.77
59789;BME280;47353;51.614;5.530;2022-08-16T00:05:39;100486.75;;;20.40;70.08
59789;BME280;47353;51.614;5.530;2022-08-16T00:08:04;100482.53;;;20.34;70.39
59789;BME280;47353;51.614;5.530;2022-08-16T00:10:31;100489.78;;;20.35;70.39
59789;BME280;47353;51.614;5.530;2022-08-16T00:12:58;100493.09;;;20.37;70.48
59789;BME280;47353;51.614;5.530;2022-08-16T00:15:31;100494.81;;;20.30;70.42
59789;BME280;47353;51.614;5.530;2022-08-16T00:17:57;100490.50;;;20.20;71.75
59789;BME280;47353;51.614;5.530;2022-08-16T00:20:23;100490.56;;;20.12;71.71
59789;BME280;47353;51.614;5.530;2022-08-16T00:22:50;100494.88;;;20.09;72.31
59789;BME280;47353;51.614;5.530;2022-08-16T00:25:18;100501.78;;;20.00;72.35
59789;BME280;47353;51.614;5.530;2022-08-16T00:27:44;100494.53;;;19.99;72.12
59789;BME280;47353;51.614;5.530;2022-08-16T00:30:12;100505.34;;;19.88;73.18
59789;BME280;47353;51.614;5.530;2022-08-16T00:32:41;100504.75;;;19.82;73.90
59789;BME280;47353;51.614;5.530;2022-08-16T00:35:08;100498.22;;;19.78;73.60
59789;BME280;47353;51.614;5.530;2022-08-16T00:37:34;100501.81;;;19.79;73.44
59789;BME280;47353;51.614;5.530;2022-08-16T00:39:59;100504.25;;;19.68;74.32
59789;BME280;47353;51.614;5.530;2022-08-16T00:42:27;100503.41;;;19.68;74.31
59789;BME280;47353;51.614;5.530;2022-08-16T00:44:56;100507.41;;;19.67;74.08
59789;BME280;47353;51.614;5.530;2022-08-16T00:47:24;100506.91;;;19.65;74.60
59789;BME280;47353;51.614;5.530;2022-08-16T00:49:50;100508.09;;;19.64;74.64
59789;BME280;47353;51.614;5.530;2022-08-16T00:52:16;100515.22;;;19.61;74.61
59789;BME280;47353;51.614;5.530;2022-08-16T00:54:41;100516.28;;;19.57;75.27
59789;BME280;47353;51.614;5.530;2022-08-16T00:57:07;100518.31;;;19.48;75.46
59789;BME280;47353;51.614;5.530;2022-08-16T00:59:35;100518.75;;;19.38;76.05
59789;BME280;47353;51.614;5.530;2022-08-16T01:02:04;100519.78;;;19.33;76.57
59789;BME280;47353;51.614;5.530;2022-08-16T01:04:30;100525.38;;;19.33;76.48
59789;BME280;47353;51.614;5.530;2022-08-16T01:06:56;100522.25;;;19.26;76.88
59789;BME280;47353;51.614;5.530;2022-08-16T01:09:22;100513.56;;;19.19;76.98
59789;BME280;47353;51.614;5.530;2022-08-16T01:11:48;100509.81;;;19.15;77.15
59789;BME280;47353;51.614;5.530;2022-08-16T01:14:25;100517.41;;;19.15;76.99
59789;BME280;47353;51.614;5.530;2022-08-16T01:16:54;100508.06;;;19.11;77.52
59789;BME280;47353;51.614;5.530;2022-08-16T01:19:39;100508.59;;;19.04;77.37
59789;BME280;47353;51.614;5.530;2022-08-16T01:25:03;100515.75;;;18.93;78.49
59789;BME280;47353;51.614;5.530;2022-08-16T01:27:55;100508.16;;;18.94;78.62
59789;BME280;47353;51.614;5.530;2022-08-16T01:30:23;100513.13;;;18.88;79.04
59789;BME280;47353;51.614;5.530;2022-08-16T01:32:51;100509.50;;;18.88;79.34
59789;BME280;47353;51.614;5.530;2022-08-16T01:35:23;100501.91;;;18.88;79.21
59789;BME280;47353;51.614;5.530;2022-08-16T01:37:53;100501.78;;;18.85;79.77
59789;BME280;47353;51.614;5.530;2022-08-16T01:40:21;100503.78;;;18.84;79.73
59789;BME280;47353;51.614;5.530;2022-08-16T01:42:48;100501.66;;;18.81;79.88
59789;BME280;47353;51.614;5.530;2022-08-16T01:45:15;100504.72;;;18.88;79.78
59789;BME280;47353;51.614;5.530;2022-08-16T01:47:41;100506.09;;;18.82;80.08
59789;BME280;47353;51.614;5.530;2022-08-16T01:50:08;100508.06;;;18.82;80.17
59789;BME280;47353;51.614;5.530;2022-08-16T01:52:34;100505.94;;;18.79;80.57
59789;BME280;47353;51.614;5.530;2022-08-16T01:55:00;100502.00;;;18.80;80.49
59789;BME280;47353;51.614;5.530;2022-08-16T01:57:27;100514.56;;;18.74;80.81
59789;BME280;47353;51.614;5.530;2022-08-16T01:59:53;100510.44;;;18.71;80.96
59789;BME280;47353;51.614;5.530;2022-08-16T02:02:19;100514.41;;;18.70;81.45
59789;BME280;47353;51.614;5.530;2022-08-16T02:04:45;100508.31;;;18.68;81.27
59789;BME280;47353;51.614;5.530;2022-08-16T02:07:10;100509.16;;;18.69;81.71
59789;BME280;47353;51.614;5.530;2022-08-16T02:09:38;100508.03;;;18.61;81.70
59789;BME280;47353;51.614;5.530;2022-08-16T02:12:07;100508.03;;;18.61;81.84
59789;BME280;47353;51.614;5.530;2022-08-16T02:14:35;100505.28;;;18.53;82.08
59789;BME280;47353;51.614;5.530;2022-08-16T02:17:04;100503.78;;;18.55;81.94
59789;BME280;47353;51.614;5.530;2022-08-16T02:19:31;100507.28;;;18.52;82.21
59789;BME280;47353;51.614;5.530;2022-08-16T02:21:58;100509.59;;;18.50;82.49
59789;BME280;47353;51.614;5.530;2022-08-16T02:24:24;100500.88;;;18.43;82.86
59789;BME280;47353;51.614;5.530;2022-08-16T02:26:50;100507.00;;;18.37;82.78
59789;BME280;47353;51.614;5.530;2022-08-16T02:29:17;100507.78;;;18.37;83.17
59789;BME280;47353;51.614;5.530;2022-08-16T02:31:45;100509.94;;;18.40;83.02
59789;BME280;47353;51.614;5.530;2022-08-16T02:34:11;100512.78;;;18.32;83.44
59789;BME280;47353;51.614;5.530;2022-08-16T02:36:37;100503.38;;;18.27;83.56
59789;BME280;47353;51.614;5.530;2022-08-16T02:39:03;100508.97;;;18.27;83.54
59789;BME280;47353;51.614;5.530;2022-08-16T02:41:29;100508.00;;;18.23;84.07
59789;BME280;47353;51.614;5.530;2022-08-16T02:43:55;100507.53;;;18.21;84.31
59789;BME280;47353;51.614;5.530;2022-08-16T02:46:21;100510.88;;;18.15;84.46
59789;BME280;47353;51.614;5.530;2022-08-16T02:48:46;100505.59;;;18.13;84.53
59789;BME280;47353;51.614;5.530;2022-08-16T02:51:12;100501.13;;;18.12;84.62
59789;BME280;47353;51.614;5.530;2022-08-16T02:53:43;100499.19;;;18.04;84.79
59789;BME280;47353;51.614;5.530;2022-08-16T02:56:10;100495.56;;;18.04;84.51
59789;BME280;47353;51.614;5.530;2022-08-16T02:58:37;100495.56;;;18.04;84.71
59789;BME280;47353;51.614;5.530;2022-08-16T03:01:02;100498.22;;;18.00;84.80
59789;BME280;47353;51.614;5.530;2022-08-16T03:03:28;100504.19;;;17.90;85.24
59789;BME280;47353;51.614;5.530;2022-08-16T03:05:54;100493.78;;;17.91;85.30
59789;BME280;47353;51.614;5.530;2022-08-16T03:08:21;100491.66;;;17.88;85.26
59789;BME280;47353;51.614;5.530;2022-08-16T03:10:47;100494.78;;;17.86;85.61
59789;BME280;47353;51.614;5.530;2022-08-16T03:13:14;100482.13;;;17.80;85.49
59789;BME280;47353;51.614;5.530;2022-08-16T03:15:42;100487.72;;;17.80;85.39
59789;BME280;47353;51.614;5.530;2022-08-16T03:18:08;100487.41;;;17.82;85.51
59789;BME280;47353;51.614;5.530;2022-08-16T03:20:33;100493.00;;;17.82;85.12
59789;BME280;47353;51.614;5.530;2022-08-16T03:22:59;100492.03;;;17.78;85.59
59789;BME280;47353;51.614;5.530;2022-08-16T03:25:25;100492.03;;;17.78;85.71
59789;BME280;47353;51.614;5.530;2022-08-16T03:27:51;100486.28;;;17.74;85.95
59789;BME280;47353;51.614;5.530;2022-08-16T03:30:21;100489.72;;;17.71;85.98
59789;BME280;47353;51.614;5.530;2022-08-16T03:32:48;100494.16;;;17.72;85.89
59789;BME280;47353;51.614;5.530;2022-08-16T03:35:15;100490.22;;;17.65;86.27
59789;BME280;47353;51.614;5.530;2022-08-16T03:37:41;100491.88;;;17.66;86.05
59789;BME280;47353;51.614;5.530;2022-08-16T03:40:09;100495.66;;;17.61;86.27
59789;BME280;47353;51.614;5.530;2022-08-16T03:42:35;100499.97;;;17.59;86.57
59789;BME280;47353;51.614;5.530;2022-08-16T03:45:00;100504.91;;;17.53;86.55
59789;BME280;47353;51.614;5.530;2022-08-16T03:47:26;100513.66;;;17.52;86.57
59789;BME280;47353;51.614;5.530;2022-08-16T03:49:53;100518.25;;;17.48;87.08
59789;BME280;47353;51.614;5.530;2022-08-16T03:52:20;100517.75;;;17.46;87.45
59789;BME280;47353;51.614;5.530;2022-08-16T03:54:46;100518.25;;;17.48;87.24
59789;BME280;47353;51.614;5.530;2022-08-16T03:57:12;100520.69;;;17.41;87.23
59789;BME280;47353;51.614;5.530;2022-08-16T03:59:37;100533.03;;;17.40;87.85
59789;BME280;47353;51.614;5.530;2022-08-16T04:02:03;100530.22;;;17.40;87.67
59789;BME280;47353;51.614;5.530;2022-08-16T04:04:29;100531.72;;;17.37;87.88
59789;BME280;47353;51.614;5.530;2022-08-16T04:06:55;100535.84;;;17.31;88.13
59789;BME280;47353;51.614;5.530;2022-08-16T04:09:20;100541.75;;;17.30;87.86
59789;BME280;47353;51.614;5.530;2022-08-16T04:11:45;100537.47;;;17.24;87.99
59789;BME280;47353;51.614;5.530;2022-08-16T04:14:11;100537.31;;;17.20;88.51
59789;BME280;47353;51.614;5.530;2022-08-16T04:16:36;100544.53;;;17.21;88.63
59789;BME280;47353;51.614;5.530;2022-08-16T04:19:02;100545.69;;;17.20;88.88
59789;BME280;47353;51.614;5.530;2022-08-16T04:21:33;100540.44;;;17.19;89.30
59789;BME280;47353;51.614;5.530;2022-08-16T04:23:59;100539.78;;;17.22;88.84
59789;BME280;47353;51.614;5.530;2022-08-16T04:26:24;100543.56;;;17.17;89.31
59789;BME280;47353;51.614;5.530;2022-08-16T04:28:50;100542.72;;;17.17;89.13
59789;BME280;47353;51.614;5.530;2022-08-16T04:31:15;100535.50;;;17.16;89.51
59789;BME280;47353;51.614;5.530;2022-08-16T04:33:41;100543.06;;;17.15;89.38
59789;BME280;47353;51.614;5.530;2022-08-16T04:36:06;100543.41;;;17.22;89.32
59789;BME280;47353;51.614;5.530;2022-08-16T04:38:32;100537.13;;;17.17;89.38
59789;BME280;47353;51.614;5.530;2022-08-16T04:40:58;100540.44;;;17.19;89.77
59789;BME280;47353;51.614;5.530;2022-08-16T04:43:23;100543.75;;;17.21;89.66
59789;BME280;47353;51.614;5.530;2022-08-16T04:45:49;100541.59;;;17.26;89.72
59789;BME280;47353;51.614;5.530;2022-08-16T04:48:15;100547.84;;;17.23;89.96
59789;BME280;47353;51.614;5.530;2022-08-16T04:50:40;100554.59;;;17.22;89.92
59789;BME280;47353;51.614;5.530;2022-08-16T04:53:05;100552.13;;;17.21;89.74
59789;BME280;47353;51.614;5.530;2022-08-16T04:55:32;100553.25;;;17.20;89.82
59789;BME280;47353;51.614;5.530;2022-08-16T04:57:58;100552.13;;;17.21;89.88
59789;BME280;47353;51.614;5.530;2022-08-16T05:00:26;100550.63;;;17.23;89.85
59789;BME280;47353;51.614;5.530;2022-08-16T05:03:01;100546.22;;;17.22;90.17
59789;BME280;47353;51.614;5.530;2022-08-16T05:05:27;100558.03;;;17.28;89.99
59789;BME280;47353;51.614;5.530;2022-08-16T05:07:53;100559.38;;;17.30;90.03
59789;BME280;47353;51.614;5.530;2022-08-16T05:10:18;100563.66;;;17.36;89.79
59789;BME280;47353;51.614;5.530;2022-08-16T05:12:43;100562.50;;;17.37;89.86
59789;BME280;47353;51.614;5.530;2022-08-16T05:15:09;100567.75;;;17.39;89.75
59789;BME280;47353;51.614;5.530;2022-08-16T05:17:35;100565.63;;;17.44;90.00
59789;BME280;47353;51.614;5.530;2022-08-16T05:20:01;100567.94;;;17.42;90.17
59789;BME280;47353;51.614;5.530;2022-08-16T05:22:27;100566.97;;;17.47;89.73
59789;BME280;47353;51.614;5.530;2022-08-16T05:24:52;100576.03;;;17.52;89.67
59789;BME280;47353;51.614;5.530;2022-08-16T05:27:18;100574.56;;;17.55;89.67
59789;BME280;47353;51.614;5.530;2022-08-16T05:29:43;100573.06;;;17.57;89.54
59789;BME280;47353;51.614;5.530;2022-08-16T05:32:09;100580.63;;;17.65;89.42
59789;BME280;47353;51.614;5.530;2022-08-16T05:34:35;100588.88;;;17.70;89.33
59789;BME280;47353;51.614;5.530;2022-08-16T05:37:00;100593.50;;;17.75;89.39
59789;BME280;47353;51.614;5.530;2022-08-16T05:39:26;100585.06;;;17.83;88.62
59789;BME280;47353;51.614;5.530;2022-08-16T05:41:53;100589.50;;;17.84;89.10
59789;BME280;47353;51.614;5.530;2022-08-16T05:44:20;100595.09;;;17.93;88.61
59789;BME280;47353;51.614;5.530;2022-08-16T05:46:46;100589.13;;;18.03;88.20
59789;BME280;47353;51.614;5.530;2022-08-16T05:49:13;100583.53;;;18.11;87.90
59789;BME280;47353;51.614;5.530;2022-08-16T05:51:41;100582.53;;;18.16;87.28
59789;BME280;47353;51.614;5.530;2022-08-16T05:54:08;100596.16;;;18.26;87.37
59789;BME280;47353;51.614;5.530;2022-08-16T05:56:33;100605.75;;;18.34;87.43
59789;BME280;47353;51.614;5.530;2022-08-16T05:58:59;100602.94;;;18.42;86.60
59789;BME280;47353;51.614;5.530;2022-08-16T06:01:24;100604.38;;;18.57;85.91
59789;BME280;47353;51.614;5.530;2022-08-16T06:03:49;100597.53;;;18.66;85.19
59789;BME280;47353;51.614;5.530;2022-08-16T06:06:15;100603.06;;;18.83;84.13
59789;BME280;47353;51.614;5.530;2022-08-16T06:08:40;100601.34;;;18.99;83.93
59789;BME280;47353;51.614;5.530;2022-08-16T06:11:07;100604.59;;;19.10;82.92
59789;BME280;47353;51.614;5.530;2022-08-16T06:13:33;100609.94;;;19.23;82.18
59789;BME280;47353;51.614;5.530;2022-08-16T06:15:59;100607.13;;;19.32;81.00
59789;BME280;47353;51.614;5.530;2022-08-16T06:18:24;100607.81;;;19.49;80.83
59789;BME280;47353;51.614;5.530;2022-08-16T06:20:50;100614.41;;;19.53;79.29
59789;BME280;47353;51.614;5.530;2022-08-16T06:23:16;100619.13;;;19.61;78.50
59789;BME280;47353;51.614;5.530;2022-08-16T06:25:41;100617.22;;;19.74;78.16
59789;BME280;47353;51.614;5.530;2022-08-16T06:28:09;100617.88;;;19.92;77.34
59789;BME280;47353;51.614;5.530;2022-08-16T06:30:37;100619.19;;;19.94;76.57
59789;BME280;47353;51.614;5.530;2022-08-16T06:33:03;100615.72;;;20.09;76.01
59789;BME280;47353;51.614;5.530;2022-08-16T06:35:28;100620.94;;;20.19;75.19
59789;BME280;47353;51.614;5.530;2022-08-16T06:37:55;100623.63;;;20.60;74.45
59789;BME280;47353;51.614;5.530;2022-08-16T06:40:21;100617.19;;;20.72;72.08
59789;BME280;47353;51.614;5.530;2022-08-16T06:42:49;100625.41;;;20.89;71.81
59789;BME280;47353;51.614;5.530;2022-08-16T06:45:16;100615.47;;;21.15;70.84
59789;BME280;47353;51.614;5.530;2022-08-16T06:47:43;100612.75;;;21.43;69.18
59789;BME280;47353;51.614;5.530;2022-08-16T06:50:08;100623.03;;;21.63;68.44
59789;BME280;47353;51.614;5.530;2022-08-16T06:52:34;100618.59;;;21.62;67.05
59789;BME280;47353;51.614;5.530;2022-08-16T06:55:05;100624.31;;;21.78;68.25
59789;BME280;47353;51.614;5.530;2022-08-16T06:57:30;100624.78;;;22.07;67.53
59789;BME280;47353;51.614;5.530;2022-08-16T06:59:56;100631.88;;;22.44;64.81
59789;BME280;47353;51.614;5.530;2022-08-16T07:02:22;100641.88;;;22.69;63.11
59789;BME280;47353;51.614;5.530;2022-08-16T07:04:47;100635.13;;;22.58;63.19
59789;BME280;47353;51.614;5.530;2022-08-16T07:07:12;100637.25;;;22.49;63.13
59789;BME280;47353;51.614;5.530;2022-08-16T07:09:38;100643.03;;;22.25;63.98
59789;BME280;47353;51.614;5.530;2022-08-16T07:12:04;100637.28;;;22.22;64.60
59789;BME280;47353;51.614;5.530;2022-08-16T07:14:30;100631.94;;;22.32;64.31
59789;BME280;47353;51.614;5.530;2022-08-16T07:16:56;100647.03;;;22.52;64.51
59789;BME280;47353;51.614;5.530;2022-08-16T07:19:22;100649.72;;;22.76;63.25
59789;BME280;47353;51.614;5.530;2022-08-16T07:21:47;100656.47;;;22.87;62.28
59789;BME280;47353;51.614;5.530;2022-08-16T07:24:13;100647.53;;;22.85;63.11
59789;BME280;47353;51.614;5.530;2022-08-16T07:26:39;100649.63;;;23.19;61.69
59789;BME280;47353;51.614;5.530;2022-08-16T07:29:04;100649.69;;;23.38;61.18
59789;BME280;47353;51.614;5.530;2022-08-16T07:31:30;100643.84;;;23.47;61.04
59789;BME280;47353;51.614;5.530;2022-08-16T07:33:56;100650.50;;;24.08;60.36
59789;BME280;47353;51.614;5.530;2022-08-16T07:36:21;100657.13;;;24.34;59.19
59789;BME280;47353;51.614;5.530;2022-08-16T07:38:47;100660.16;;;24.64;57.31
59789;BME280;47353;51.614;5.530;2022-08-16T07:41:12;100658.63;;;24.89;56.80
59789;BME280;47353;51.614;5.530;2022-08-16T07:43:38;100669.78;;;24.59;56.71
59789;BME280;47353;51.614;5.530;2022-08-16T07:46:04;100666.03;;;24.97;56.77
59789;BME280;47353;51.614;5.530;2022-08-16T07:48:30;100674.09;;;25.18;55.31
59789;BME280;47353;51.614;5.530;2022-08-16T07:50:55;100669.31;;;25.44;54.32
59789;BME280;47353;51.614;5.530;2022-08-16T07:53:21;100671.06;;;25.52;54.08
59789;BME280;47353;51.614;5.530;2022-08-16T07:55:47;100670.78;;;25.61;53.70
59789;BME280;47353;51.614;5.530;2022-08-16T07:58:13;100664.78;;;26.22;52.31
59789;BME280;47353;51.614;5.530;2022-08-16T08:00:38;100673.88;;;26.34;52.23
59789;BME280;47353;51.614;5.530;2022-08-16T08:03:04;100673.25;;;26.51;50.90
59789;BME280;47353;51.614;5.530;2022-08-16T08:05:30;100676.47;;;26.50;50.94
59789;BME280;47353;51.614;5.530;2022-08-16T08:07:56;100681.25;;;26.42;51.05
59789;BME280;47353;51.614;5.530;2022-08-16T08:10:23;100674.84;;;26.85;50.98
59789;BME280;47353;51.614;5.530;2022-08-16T08:12:50;100677.81;;;27.36;49.09
59789;BME280;47353;51.614;5.530;2022-08-16T08:15:17;100679.50;;;28.02;48.27
59789;BME280;47353;51.614;5.530;2022-08-16T08:17:43;100675.97;;;28.26;46.23
59789;BME280;47353;51.614;5.530;2022-08-16T08:20:11;100674.47;;;28.49;45.16
59789;BME280;47353;51.614;5.530;2022-08-16T08:22:37;100683.56;;;29.07;44.02
59789;BME280;47353;51.614;5.530;2022-08-16T08:25:04;100681.75;;;28.43;43.51
59789;BME280;47353;51.614;5.530;2022-08-16T08:27:30;100692.19;;;28.15;45.24
59789;BME280;47353;51.614;5.530;2022-08-16T08:29:55;100697.09;;;28.21;44.56
59789;BME280;47353;51.614;5.530;2022-08-16T08:32:22;100692.06;;;28.86;43.90
59789;BME280;47353;51.614;5.530;2022-08-16T08:34:51;100695.00;;;29.50;42.10
59789;BME280;47353;51.614;5.530;2022-08-16T08:37:16;100688.91;;;29.65;40.48
59789;BME280;47353;51.614;5.530;2022-08-16T08:39:42;100686.88;;;29.80;40.43
59789;BME280;47353;51.614;5.530;2022-08-16T08:42:07;100686.41;;;30.06;39.48
59789;BME280;47353;51.614;5.530;2022-08-16T08:44:33;100680.16;;;30.39;38.94
59789;BME280;47353;51.614;5.530;2022-08-16T08:47:04;100677.31;;;30.42;39.09
59789;BME280;47353;51.614;5.530;2022-08-16T08:49:32;100689.06;;;31.24;37.75
59789;BME280;47353;51.614;5.530;2022-08-16T08:51:57;100695.28;;;31.12;37.72
59789;BME280;47353;51.614;5.530;2022-08-16T08:54:23;100698.06;;;31.26;36.67
59789;BME280;47353;51.614;5.530;2022-08-16T08:56:51;100698.22;;;31.05;36.33
59789;BME280;47353;51.614;5.530;2022-08-16T08:59:16;100700.47;;;30.58;37.22
59789;BME280;47353;51.614;5.530;2022-08-16T09:01:42;100708.69;;;30.53;36.74
59789;BME280;47353;51.614;5.530;2022-08-16T09:04:08;100700.94;;;30.50;37.29
59789;BME280;47353;51.614;5.530;2022-08-16T09:06:34;100701.66;;;30.75;36.47
59789;BME280;47353;51.614;5.530;2022-08-16T09:09:00;100706.13;;;30.80;36.15
59789;BME280;47353;51.614;5.530;2022-08-16T09:11:27;100695.63;;;31.24;35.04
59789;BME280;47353;51.614;5.530;2022-08-16T09:13:52;100705.63;;;31.97;34.44
59789;BME280;47353;51.614;5.530;2022-08-16T09:16:18;100697.06;;;32.31;33.79
59789;BME280;47353;51.614;5.530;2022-08-16T09:18:44;100692.81;;;32.76;32.27
59789;BME280;47353;51.614;5.530;2022-08-16T09:21:11;100706.06;;;32.67;32.22
59789;BME280;47353;51.614;5.530;2022-08-16T09:23:37;100704.91;;;32.91;32.51
59789;BME280;47353;51.614;5.530;2022-08-16T09:26:05;100717.84;;;33.29;32.14
59789;BME280;47353;51.614;5.530;2022-08-16T09:28:32;100713.47;;;33.47;31.06
59789;BME280;47353;51.614;5.530;2022-08-16T09:30:57;100720.34;;;33.00;31.03
59789;BME280;47353;51.614;5.530;2022-08-16T09:33:23;100710.41;;;32.78;31.87
59789;BME280;47353;51.614;5.530;2022-08-16T09:35:49;100712.28;;;33.18;30.88
59789;BME280;47353;51.614;5.530;2022-08-16T09:38:14;100714.41;;;33.41;31.00
59789;BME280;47353;51.614;5.530;2022-08-16T09:40:46;100716.94;;;34.08;30.02
59789;BME280;47353;51.614;5.530;2022-08-16T09:43:15;100715.72;;;33.59;29.82
59789;BME280;47353;51.614;5.530;2022-08-16T09:45:41;100717.25;;;34.33;29.32
59789;BME280;47353;51.614;5.530;2022-08-16T09:48:10;100704.88;;;34.75;29.01
59789;BME280;47353;51.614;5.530;2022-08-16T09:50:37;100714.25;;;34.79;27.63
59789;BME280;47353;51.614;5.530;2022-08-16T09:53:09;100718.88;;;34.93;28.15
59789;BME280;47353;51.614;5.530;2022-08-16T09:55:35;100713.44;;;35.30;27.48
59789;BME280;47353;51.614;5.530;2022-08-16T09:58:01;100710.72;;;35.75;26.12
59789;BME280;47353;51.614;5.530;2022-08-16T10:00:26;100716.72;;;35.81;25.92
59789;BME280;47353;51.614;5.530;2022-08-16T10:02:52;100715.56;;;36.10;25.73
59789;BME280;47353;51.614;5.530;2022-08-16T10:05:19;100709.09;;;36.35;25.01
59789;BME280;47353;51.614;5.530;2022-08-16T10:07:45;100718.44;;;35.94;25.99
59789;BME280;47353;51.614;5.530;2022-08-16T10:10:12;100707.25;;;36.12;25.55
59789;BME280;47353;51.614;5.530;2022-08-16T10:12:38;100716.63;;;36.16;25.02
59789;BME280;47353;51.614;5.530;2022-08-16T10:15:22;100714.50;;;35.56;25.73
59789;BME280;47353;51.614;5.530;2022-08-16T10:17:51;100716.72;;;34.97;26.21
59789;BME280;47353;51.614;5.530;2022-08-16T10:20:17;100707.84;;;35.59;25.45
59789;BME280;47353;51.614;5.530;2022-08-16T10:22:43;100710.34;;;35.89;25.20
59789;BME280;47353;51.614;5.530;2022-08-16T10:25:08;100710.31;;;36.78;24.03
59789;BME280;47353;51.614;5.530;2022-08-16T10:27:34;100713.09;;;37.07;23.92
59789;BME280;47353;51.614;5.530;2022-08-16T10:30:03;100706.91;;;37.34;23.00
59789;BME280;47353;51.614;5.530;2022-08-16T10:32:30;100707.22;;;37.48;22.84
59789;BME280;47353;51.614;5.530;2022-08-16T10:34:55;100710.78;;;37.15;23.57
59789;BME280;47353;51.614;5.530;2022-08-16T10:37:20;100713.00;;;37.48;23.00
59789;BME280;47353;51.614;5.530;2022-08-16T10:39:46;100709.59;;;37.87;22.14
59789;BME280;47353;51.614;5.530;2022-08-16T10:42:11;100708.88;;;37.96;22.24
59789;BME280;47353;51.614;5.530;2022-08-16T10:44:37;100708.91;;;38.52;21.09
59789;BME280;47353;51.614;5.530;2022-08-16T10:47:02;100714.16;;;37.51;22.39
59789;BME280;47353;51.614;5.530;2022-08-16T10:49:28;100716.56;;;35.56;24.95
59789;BME280;47353;51.614;5.530;2022-08-16T10:51:53;100724.56;;;35.48;26.24
59789;BME280;47353;51.614;5.530;2022-08-16T10:54:20;100716.47;;;35.43;24.96
59789;BME280;47353;51.614;5.530;2022-08-16T10:56:45;100713.38;;;36.14;24.30
59789;BME280;47353;51.614;5.530;2022-08-16T10:59:11;100729.19;;;36.38;23.73
59789;BME280;47353;51.614;5.530;2022-08-16T11:01:36;100719.00;;;36.34;23.36
59789;BME280;47353;51.614;5.530;2022-08-16T11:04:02;100722.09;;;36.11;23.81
59789;BME280;47353;51.614;5.530;2022-08-16T11:06:28;100723.84;;;36.08;23.54
59789;BME280;47353;51.614;5.530;2022-08-16T11:08:53;100725.34;;;37.61;23.12
59789;BME280;47353;51.614;5.530;2022-08-16T11:11:20;100722.25;;;37.68;21.23
59789;BME280;47353;51.614;5.530;2022-08-16T11:13:47;100722.94;;;39.27;21.34
59789;BME280;47353;51.614;5.530;2022-08-16T11:16:13;100723.81;;;39.85;20.00
59789;BME280;47353;51.614;5.530;2022-08-16T11:18:39;100718.78;;;41.77;18.57
59789;BME280;47353;51.614;5.530;2022-08-16T11:21:05;100721.75;;;40.58;17.53
59789;BME280;47353;51.614;5.530;2022-08-16T11:23:31;100723.91;;;39.81;18.44
59789;BME280;47353;51.614;5.530;2022-08-16T11:25:57;100724.81;;;40.54;19.04
59789;BME280;47353;51.614;5.530;2022-08-16T11:28:23;100730.28;;;40.52;18.96
59789;BME280;47353;51.614;5.530;2022-08-16T11:30:48;100726.16;;;38.77;19.42
59789;BME280;47353;51.614;5.530;2022-08-16T11:33:14;100723.50;;;37.55;21.86
59789;BME280;47353;51.614;5.530;2022-08-16T11:35:40;100729.03;;;37.12;22.52
59789;BME280;47353;51.614;5.530;2022-08-16T11:38:14;100730.84;;;36.52;22.99
59789;BME280;47353;51.614;5.530;2022-08-16T11:40:46;100730.00;;;35.26;23.93
59789;BME280;47353;51.614;5.530;2022-08-16T11:43:16;100731.53;;;34.17;24.65
59789;BME280;47353;51.614;5.530;2022-08-16T11:45:43;100742.22;;;32.91;26.52
59789;BME280;47353;51.614;5.530;2022-08-16T11:48:08;100734.63;;;32.03;28.13
59789;BME280;47353;51.614;5.530;2022-08-16T11:50:34;100731.88;;;31.41;29.25
59789;BME280;47353;51.614;5.530;2022-08-16T11:53:01;100743.34;;;31.38;30.70
59789;BME280;47353;51.614;5.530;2022-08-16T11:55:27;100734.72;;;31.45;31.19
59789;BME280;47353;51.614;5.530;2022-08-16T11:57:52;100736.88;;;31.78;30.89
59789;BME280;47353;51.614;5.530;2022-08-16T12:00:18;100737.44;;;31.59;29.31
59789;BME280;47353;51.614;5.530;2022-08-16T12:02:43;100739.66;;;31.41;30.71
59789;BME280;47353;51.614;5.530;2022-08-16T12:05:11;100750.41;;;31.16;30.08
59789;BME280;47353;51.614;5.530;2022-08-16T12:07:37;100751.56;;;31.25;29.42
59789;BME280;47353;51.614;5.530;2022-08-16T12:10:07;100751.47;;;30.67;30.56
59789;BME280;47353;51.614;5.530;2022-08-16T12:12:33;100750.47;;;31.09;30.59
59789;BME280;47353;51.614;5.530;2022-08-16T12:14:58;100754.88;;;31.78;28.24
59789;BME280;47353;51.614;5.530;2022-08-16T12:17:24;100746.78;;;32.14;28.50
59789;BME280;47353;51.614;5.530;2022-08-16T12:19:50;100745.44;;;32.59;26.89
59789;BME280;47353;51.614;5.530;2022-08-16T12:22:16;100745.75;;;33.28;27.03
59789;BME280;47353;51.614;5.530;2022-08-16T12:24:41;100744.50;;;34.48;25.88
59789;BME280;47353;51.614;5.530;2022-08-16T12:27:06;100748.94;;;36.08;22.35
59789;BME280;47353;51.614;5.530;2022-08-16T12:29:32;100746.63;;;37.30;20.90
59789;BME280;47353;51.614;5.530;2022-08-16T12:31:57;100736.72;;;39.23;20.74
59789;BME280;47353;51.614;5.530;2022-08-16T12:34:23;100746.78;;;40.73;18.71
59789;BME280;47353;51.614;5.530;2022-08-16T12:36:48;100741.38;;;40.00;18.62
59789;BME280;47353;51.614;5.530;2022-08-16T12:39:14;100737.81;;;39.87;18.50
59789;BME280;47353;51.614;5.530;2022-08-16T12:41:42;100745.09;;;40.09;18.56
59789;BME280;47353;51.614;5.530;2022-08-16T12:44:10;100752.72;;;40.43;19.65
59789;BME280;47353;51.614;5.530;2022-08-16T12:46:37;100745.91;;;40.19;18.14
59789;BME280;47353;51.614;5.530;2022-08-16T12:49:03;100753.84;;;41.41;17.89